Time;durP1;ratioP1;P1;durP2;ratioP2;P2;SDS_P1;SDS_P2;PMS_P1;PMS_P2;Temp;Humidity;BMP_temperature;BMP_pressure;BME280_temperature;BME280_humidity;BME280_pressure;Samples;Min_cycle;Max_cycle;Signal;HPM_P1;HPM_P2
2022/05/25 00:00:09;;;;;;;4.62;3.05;;;;;;;6.84;100.00;100706.94;1813852;78;21223;-42
2022/05/25 00:02:38;;;;;;;6.97;2.83;;;;;;;6.82;100.00;100705.20;1811445;78;20938;-43
2022/05/25 00:05:06;;;;;;;2.95;2.47;;;;;;;6.80;100.00;100707.80;1808418;78;20927;-42
2022/05/25 00:07:33;;;;;;;6.70;3.02;;;;;;;6.78;100.00;100709.92;1806977;79;20939;-42
2022/05/25 00:10:00;;;;;;;4.70;2.77;;;;;;;6.73;100.00;100714.64;1802561;79;20880;-42
2022/05/25 00:12:27;;;;;;;2.85;2.27;;;;;;;6.71;100.00;100719.37;1808638;78;21179;-42
2022/05/25 00:14:55;;;;;;;3.37;2.75;;;;;;;6.69;100.00;100722.34;1808222;78;20923;-42
2022/05/25 00:17:22;;;;;;;7.33;2.33;;;;;;;6.68;100.00;100719.34;1797176;79;20926;-41
2022/05/25 00:20:01;;;;;;;4.37;3.15;;;;;;;6.65;100.00;100720.62;1781652;79;20975;-42
2022/05/25 00:22:43;;;;;;;4.92;3.40;;;;;;;6.55;100.00;100724.47;1811801;78;21013;-41
2022/05/25 00:25:20;;;;;;;2.95;2.70;;;;;;;6.44;100.00;100724.84;1800280;78;21210;-42
2022/05/25 00:27:48;;;;;;;4.78;2.87;;;;;;;6.38;100.00;100726.13;1802458;79;20970;-43
2022/05/25 00:30:15;;;;;;;4.83;3.10;;;;;;;6.30;100.00;100726.09;1803115;79;20871;-41
2022/05/25 00:32:43;;;;;;;3.92;2.87;;;;;;;6.24;100.00;100723.50;1805395;79;20880;-42
2022/05/25 00:35:12;;;;;;;5.92;3.15;;;;;;;6.18;100.00;100720.47;1800794;77;21009;-42
2022/05/25 00:37:39;;;;;;;4.22;2.90;;;;;;;6.11;100.00;100720.02;1798745;78;21443;-41
2022/05/25 00:40:12;;;;;;;5.85;3.72;;;;;;;6.03;100.00;100732.42;1812167;78;20907;-42
2022/05/25 00:42:40;;;;;;;9.13;2.83;;;;;;;5.97;100.00;100726.36;1809605;78;20919;-42
2022/05/25 00:45:08;;;;;;;10.65;2.85;;;;;;;5.93;100.00;100730.61;1803309;78;20919;-41
2022/05/25 00:47:36;;;;;;;5.62;3.33;;;;;;;5.90;100.00;100728.91;1815132;78;20906;-42
2022/05/25 00:50:04;;;;;;;3.77;3.30;;;;;;;5.86;100.00;100731.03;1759067;79;21386;-42
2022/05/25 00:52:31;;;;;;;3.98;2.80;;;;;;;5.83;100.00;100727.57;1808655;78;21045;-42
2022/05/25 00:55:04;;;;;;;4.45;3.30;;;;;;;5.81;100.00;100724.14;1807418;78;20971;-42
2022/05/25 00:57:38;;;;;;;3.72;2.75;;;;;;;5.85;100.00;100725.87;1803829;78;20880;-41
2022/05/25 01:00:15;;;;;;;4.78;2.83;;;;;;;5.95;100.00;100731.92;1807837;78;21003;-41
2022/05/25 01:02:51;;;;;;;3.95;2.92;;;;;;;6.07;100.00;100726.89;1808299;78;21249;-41
2022/05/25 01:05:29;;;;;;;8.50;3.10;;;;;;;6.13;100.00;100726.03;1801225;78;20954;-41
2022/05/25 01:08:19;;;;;;;3.40;3.20;;;;;;;6.20;100.00;100724.35;1808240;78;20934;-41
2022/05/25 01:11:14;;;;;;;4.78;3.05;;;;;;;6.28;100.00;100731.66;1805952;79;20943;-41
2022/05/25 01:14:17;;;;;;;5.10;2.58;;;;;;;6.31;100.00;100737.68;1801789;78;20872;-41
2022/05/25 01:17:01;;;;;;;6.62;2.92;;;;;;;6.31;100.00;100731.25;1796491;79;21159;-41
2022/05/25 01:19:39;;;;;;;9.23;3.25;;;;;;;6.33;100.00;100729.98;1796255;79;21524;-41
2022/05/25 01:22:36;;;;;;;6.78;3.25;;;;;;;6.34;100.00;100729.13;1796596;79;20900;-42
2022/05/25 01:25:11;;;;;;;3.95;2.67;;;;;;;6.32;100.00;100729.11;1811971;78;21545;-41
2022/05/25 01:27:45;;;;;;;3.70;2.80;;;;;;;6.34;100.00;100734.27;1805575;78;20979;-41
2022/05/25 01:30:31;;;;;;;5.90;3.37;;;;;;;6.30;100.00;100733.80;1808505;78;21204;-41
2022/05/25 01:33:22;;;;;;;3.20;2.90;;;;;;;6.28;100.00;100739.37;1806679;78;20978;-42
2022/05/25 01:36:15;;;;;;;3.65;2.75;;;;;;;6.20;100.00;100742.34;1808388;79;20880;-42
2022/05/25 01:38:46;;;;;;;4.10;3.00;;;;;;;6.08;100.00;100741.86;1808313;79;20939;-41
2022/05/25 01:41:48;;;;;;;3.10;2.80;;;;;;;5.97;100.00;100749.48;1810315;78;20863;-41
2022/05/25 01:44:22;;;;;;;7.72;3.20;;;;;;;5.89;100.00;100753.29;1807927;78;21755;-41
2022/05/25 01:46:55;;;;;;;3.62;3.40;;;;;;;5.82;100.00;100746.00;1806949;78;20912;-42
2022/05/25 01:49:26;;;;;;;3.85;3.10;;;;;;;5.79;100.00;100754.94;1809044;78;20926;-41
2022/05/25 01:51:57;;;;;;;3.55;2.60;;;;;;;5.72;100.00;100768.20;1803496;78;21490;-41
2022/05/25 01:54:28;;;;;;;6.83;2.85;;;;;;;5.67;100.00;100767.28;1805292;79;21421;-41
2022/05/25 01:56:57;;;;;;;4.65;2.90;;;;;;;5.64;100.00;100770.27;1807255;79;21123;-42
2022/05/25 01:59:24;;;;;;;4.62;3.25;;;;;;;5.63;100.00;100774.53;1804917;79;20919;-42
2022/05/25 02:04:52;;;;;;;3.02;2.70;;;;;;;5.55;100.00;100778.33;1814135;78;20899;-42
2022/05/25 02:07:52;;;;;;;3.50;2.65;;;;;;;5.53;100.00;100776.17;1810000;78;20966;-42
2022/05/25 02:11:00;;;;;;;4.60;3.00;;;;;;;5.57;100.00;100774.09;1801574;79;21082;-42
2022/05/25 02:13:51;;;;;;;4.33;3.20;;;;;;;5.57;100.00;100774.09;1757245;80;20876;-42
2022/05/25 02:16:50;;;;;;;4.45;3.42;;;;;;;5.51;100.00;100779.59;1746565;81;20897;-41
2022/05/25 02:19:37;;;;;;;6.03;3.55;;;;;;;5.51;100.00;100779.59;1809611;78;20856;-42
2022/05/25 02:22:23;;;;;;;6.08;3.12;;;;;;;5.52;100.00;100783.88;1765080;78;21437;-42
2022/05/25 02:24:57;;;;;;;3.37;3.08;;;;;;;5.52;100.00;100782.59;1801893;78;22246;-41
2022/05/25 02:27:44;;;;;;;4.65;3.40;;;;;;;5.57;100.00;100780.92;1806400;79;21184;-42
2022/05/25 02:30:17;;;;;;;8.68;3.40;;;;;;;5.57;100.00;100780.92;1795271;78;20896;-42
2022/05/25 02:32:57;;;;;;;3.08;2.87;;;;;;;5.63;100.00;100787.82;1805654;79;20969;-41
2022/05/25 02:35:24;;;;;;;6.15;2.98;;;;;;;5.66;100.00;100791.69;1809166;78;20919;-42
2022/05/25 02:37:52;;;;;;;3.83;2.80;;;;;;;5.73;100.00;100799.87;1811032;78;21136;-42
2022/05/25 02:40:18;;;;;;;7.08;2.92;;;;;;;5.79;100.00;100795.20;1814909;78;20970;-42
2022/05/25 02:42:46;;;;;;;7.92;3.25;;;;;;;5.87;100.00;100801.24;1815738;78;21042;-43
2022/05/25 02:45:14;;;;;;;5.10;2.90;;;;;;;5.94;100.00;100804.72;1810774;78;20930;-42
2022/05/25 02:47:44;;;;;;;2.95;2.70;;;;;;;6.02;100.00;100800.52;1811833;78;21287;-42
2022/05/25 02:50:11;;;;;;;5.15;3.60;;;;;;;6.11;100.00;100800.58;1804576;79;21232;-42
2022/05/25 02:52:38;;;;;;;3.30;3.00;;;;;;;6.23;100.00;100794.65;1804214;79;21015;-42
2022/05/25 02:55:06;;;;;;;10.93;3.72;;;;;;;6.36;100.00;100801.99;1808772;78;20922;-42
2022/05/25 02:57:35;;;;;;;3.25;2.90;;;;;;;6.50;100.00;100800.77;1809140;78;21076;-42
2022/05/25 03:00:03;;;;;;;7.08;2.72;;;;;;;6.63;100.00;100803.36;1800907;78;20959;-42
2022/05/25 03:02:30;;;;;;;3.55;2.75;;;;;;;6.73;100.00;100805.98;1803675;79;21914;-42
2022/05/25 03:04:56;;;;;;;3.37;3.12;;;;;;;6.84;100.00;100804.72;1810833;78;20946;-42
2022/05/25 03:07:25;;;;;;;7.17;3.00;;;;;;;6.97;100.00;100812.05;1805100;78;20927;-42
2022/05/25 03:09:52;;;;;;;4.22;2.85;;;;;;;7.14;100.00;100817.22;1813026;78;20899;-41
2022/05/25 03:12:20;;;;;;;5.67;3.08;;;;;;;7.31;100.00;100813.81;1785251;78;21544;-42
2022/05/25 03:14:47;;;;;;;4.33;2.87;;;;;;;7.45;100.00;100818.56;1804976;78;21220;-42
2022/05/25 03:17:14;;;;;;;5.00;2.95;;;;;;;7.62;100.00;100813.81;1809087;78;21018;-42
2022/05/25 03:19:45;;;;;;;3.77;3.00;;;;;;;7.77;100.00;100816.81;1799139;78;21426;-42
2022/05/25 03:22:12;;;;;;;4.08;2.72;;;;;;;7.91;100.00;100820.66;1814059;78;21517;-42
2022/05/25 03:24:40;;;;;;;5.60;3.20;;;;;;;8.08;100.00;100823.64;1809910;78;20931;-42
2022/05/25 03:27:07;;;;;;;3.00;2.67;;;;;;;8.25;100.00;100818.02;1807149;79;21246;-42
2022/05/25 03:29:34;;;;;;;7.30;2.98;;;;;;;8.44;100.00;100825.67;1803595;79;20966;-42
2022/05/25 03:32:01;;;;;;;7.12;2.50;;;;;;;8.62;100.00;100829.96;1800381;79;21441;-42
2022/05/25 03:34:28;;;;;;;23.00;3.05;;;;;;;8.79;100.00;100822.13;1802532;79;20927;-42
2022/05/25 03:36:55;;;;;;;3.95;2.75;;;;;;;8.97;100.00;100828.91;1800265;79;20959;-42
2022/05/25 03:39:24;;;;;;;3.83;2.98;;;;;;;9.16;100.00;100828.36;1801147;79;21313;-42
2022/05/25 03:41:55;;;;;;;7.42;3.20;;;;;;;9.39;100.00;100826.05;1797908;79;20919;-42
2022/05/25 03:44:23;;;;;;;9.10;2.90;;;;;;;9.63;100.00;100821.55;1783312;79;21069;-42
2022/05/25 03:46:51;;;;;;;3.55;2.25;;;;;;;9.89;100.00;100829.09;1808381;79;20966;-42
2022/05/25 03:49:18;;;;;;;5.60;2.47;;;;;;;10.20;100.00;100821.42;1809516;78;20975;-42
2022/05/25 03:51:46;;;;;;;2.30;2.08;;;;;;;10.54;100.00;100826.26;1808473;78;20951;-42
2022/05/25 03:54:13;;;;;;;9.00;2.65;;;;;;;10.92;100.00;100826.17;1805730;79;20852;-42
2022/05/25 03:56:40;;;;;;;5.72;2.27;;;;;;;11.35;100.00;100827.72;1799098;79;21454;-42
2022/05/25 03:59:07;;;;;;;4.67;1.92;;;;;;;11.83;100.00;100832.56;1796654;79;20915;-42
2022/05/25 04:01:35;;;;;;;3.98;2.40;;;;;;;12.30;100.00;100831.28;1797402;79;20927;-43
2022/05/25 04:04:02;;;;;;;5.95;2.30;;;;;;;12.73;96.92;100825.64;1807380;78;21845;-43
2022/05/25 04:06:29;;;;;;;3.27;1.90;;;;;;;13.15;92.50;100828.19;1813467;78;20958;-43
2022/05/25 04:08:57;;;;;;;4.58;2.47;;;;;;;13.49;86.80;100831.76;1816094;78;21053;-43
2022/05/25 04:11:24;;;;;;;3.27;2.12;;;;;;;13.81;84.60;100838.35;1807472;78;20931;-44
2022/05/25 04:13:52;;;;;;;2.80;2.40;;;;;;;14.10;78.21;100832.81;1811714;78;20951;-43
2022/05/25 04:16:19;;;;;;;4.87;1.98;;;;;;;14.29;73.68;100836.63;1814527;78;21266;-42
2022/05/25 04:18:46;;;;;;;2.37;2.05;;;;;;;14.49;72.23;100841.70;1815061;78;20851;-43
2022/05/25 04:21:13;;;;;;;6.37;1.75;;;;;;;14.65;69.28;100844.70;1811996;78;20970;-42
2022/05/25 04:23:40;;;;;;;2.72;2.40;;;;;;;14.78;68.28;100846.09;1810012;78;20993;-43
2022/05/25 04:26:07;;;;;;;7.17;2.25;;;;;;;14.97;66.27;100842.08;1812291;78;20907;-43
2022/05/25 04:28:37;;;;;;;4.10;2.25;;;;;;;15.10;64.03;100846.02;1813410;78;21377;-43
2022/05/25 04:31:04;;;;;;;2.50;2.10;;;;;;;15.26;64.09;100852.04;1814592;78;21081;-43
2022/05/25 04:33:31;;;;;;;2.92;2.20;;;;;;;15.38;64.14;100855.58;1809251;78;21121;-42
2022/05/25 04:35:58;;;;;;;3.62;2.47;;;;;;;15.54;63.38;100851.18;1806359;78;21529;-43
2022/05/25 04:38:26;;;;;;;7.03;2.52;;;;;;;15.69;63.46;100850.64;1810141;78;20868;-43
2022/05/25 04:40:53;;;;;;;5.67;2.30;;;;;;;15.92;63.23;100855.58;1798066;79;21253;-43
2022/05/25 04:43:22;;;;;;;4.08;2.80;;;;;;;16.08;62.19;100854.58;1812010;78;20962;-43
2022/05/25 04:45:52;;;;;;;6.00;2.67;;;;;;;16.31;61.46;100855.52;1814090;78;20923;-43
2022/05/25 04:48:23;;;;;;;4.87;2.42;;;;;;;16.54;61.82;100853.36;1812000;78;20942;-43
2022/05/25 04:50:50;;;;;;;4.83;2.67;;;;;;;16.81;60.90;100854.56;1814462;78;20997;-43
2022/05/25 04:53:19;;;;;;;4.20;2.72;;;;;;;17.01;59.20;100846.41;1809747;79;21175;-43
2022/05/25 04:58:37;;;;;;;10.95;2.60;;;;;;;16.99;58.48;100848.23;1803026;79;20974;-43
2022/05/25 05:01:05;;;;;;;5.72;2.33;;;;;;;16.97;58.83;100852.20;1801153;79;21493;-43
2022/05/25 05:03:32;;;;;;;7.40;2.95;;;;;;;17.03;59.30;100850.69;1809038;78;21513;-43
2022/05/25 05:06:01;;;;;;;6.05;2.50;;;;;;;17.17;59.06;100858.42;1813086;78;20970;-43
2022/05/25 05:08:28;;;;;;;7.58;2.62;;;;;;;17.31;59.87;100857.43;1815489;78;21500;-43
2022/05/25 05:10:56;;;;;;;5.30;2.87;;;;;;;17.52;58.85;100860.92;1782287;78;21690;-43
2022/05/25 05:13:23;;;;;;;5.72;2.80;;;;;;;17.64;56.79;100858.73;1809414;79;21058;-41
2022/05/25 05:15:51;;;;;;;5.22;2.80;;;;;;;17.69;57.25;100860.69;1810456;78;20931;-43
2022/05/25 05:18:20;;;;;;;3.77;2.85;;;;;;;17.86;57.57;100859.97;1805552;78;21147;-43
2022/05/25 05:20:58;;;;;;;8.60;3.22;;;;;;;18.02;56.94;100864.13;1809254;78;21505;-43
2022/05/25 05:23:25;;;;;;;6.45;2.65;;;;;;;18.19;57.90;100863.41;1812809;78;21006;-43
2022/05/25 05:25:51;;;;;;;5.65;3.00;;;;;;;18.47;55.36;100865.24;1812980;78;21045;-43
2022/05/25 05:28:21;;;;;;;6.97;2.77;;;;;;;18.51;55.22;100869.42;1811808;78;20966;-43
2022/05/25 05:30:53;;;;;;;11.53;2.40;;;;;;;18.57;54.75;100866.98;1811067;78;21825;-43
2022/05/25 05:33:22;;;;;;;3.35;2.50;;;;;;;18.78;55.51;100869.94;1814681;78;20923;-43
2022/05/25 05:35:53;;;;;;;8.78;2.33;;;;;;;18.99;54.13;100870.34;1804485;78;21445;-43
2022/05/25 05:38:20;;;;;;;12.30;3.00;;;;;;;19.09;53.75;100880.33;1814171;78;21005;-43
2022/05/25 05:40:47;;;;;;;6.65;2.58;;;;;;;19.22;54.24;100874.03;1802428;78;20933;-43
2022/05/25 05:43:14;;;;;;;8.58;2.45;;;;;;;19.47;52.97;100874.63;1805506;78;22005;-43
2022/05/25 05:45:42;;;;;;;6.87;2.83;;;;;;;19.62;52.42;100870.38;1812232;78;20902;-41
2022/05/25 05:48:16;;;;;;;9.20;3.27;;;;;;;19.73;52.05;100875.93;1802469;78;20978;-41
2022/05/25 05:50:43;;;;;;;5.33;3.27;;;;;;;19.87;52.08;100875.71;1809469;78;20887;-41
2022/05/25 05:53:11;;;;;;;2.52;2.12;;;;;;;19.94;51.87;100874.49;1803785;79;20970;-41
2022/05/25 05:55:40;;;;;;;4.37;2.50;;;;;;;20.13;51.73;100882.75;1809512;78;21268;-41
2022/05/25 05:58:07;;;;;;;5.42;2.42;;;;;;;20.36;51.28;100881.08;1808519;79;20989;-42
2022/05/25 06:00:34;;;;;;;6.35;2.33;;;;;;;20.57;51.25;100884.78;1809640;78;20991;-41
2022/05/25 06:03:20;;;;;;;4.20;2.30;;;;;;;20.59;51.05;100874.19;1808619;78;20957;-41
2022/05/25 06:10:44;;;;;;;4.92;2.42;;;;;;;20.41;49.46;100876.03;1804231;78;21303;-42
2022/05/25 06:13:29;;;;;;;5.42;3.30;;;;;;;20.30;49.57;100881.86;1812503;78;20993;-41
2022/05/25 06:21:27;;;;;;;10.30;2.60;;;;;;;20.36;49.93;100886.78;1817326;78;20974;-41
2022/05/25 06:23:54;;;;;;;10.48;2.67;;;;;;;20.37;49.47;100890.66;1805809;78;21227;-42
2022/05/25 06:26:25;;;;;;;10.23;2.20;;;;;;;20.45;49.17;100890.70;1805410;79;20915;-41
2022/05/25 06:28:50;;;;;;;3.72;2.50;;;;;;;20.46;49.15;100891.09;1807364;78;20910;-41
2022/05/25 06:31:17;;;;;;;5.22;2.80;;;;;;;20.51;50.18;100888.61;1810545;78;20962;-41
2022/05/25 06:33:44;;;;;;;4.28;2.65;;;;;;;20.58;47.28;100893.53;1808525;78;20962;-41
2022/05/25 06:36:21;;;;;;;7.50;2.35;;;;;;;20.49;48.24;100889.61;1809285;78;21222;-42
2022/05/25 06:38:48;;;;;;;3.92;2.47;;;;;;;20.56;47.41;100894.91;1799097;78;20994;-42
2022/05/25 06:41:59;;;;;;;13.35;2.90;;;;;;;20.76;47.32;100886.42;1798460;79;22564;-42
2022/05/25 06:44:26;;;;;;;7.53;3.00;;;;;;;20.77;46.70;100892.06;1758054;80;20880;-42
2022/05/25 06:46:53;;;;;;;9.30;3.02;;;;;;;20.90;46.98;100897.08;1757411;81;21177;-42
2022/05/25 06:49:21;;;;;;;5.58;2.40;;;;;;;20.89;43.71;100890.57;1749815;82;20991;-42
2022/05/25 06:51:48;;;;;;;7.60;2.27;;;;;;;20.84;43.99;100894.80;1749751;82;20889;-42
2022/05/25 06:54:16;;;;;;;6.00;2.40;;;;;;;20.80;43.05;100894.55;1749836;82;20924;-42
2022/05/25 06:56:43;;;;;;;2.40;1.90;;;;;;;20.76;43.98;100896.94;1749737;82;20960;-42
2022/05/25 06:59:10;;;;;;;6.20;2.08;;;;;;;20.86;41.94;100889.42;1749844;81;22111;-42
2022/05/25 07:01:39;;;;;;;3.95;2.52;;;;;;;21.00;42.69;100897.87;1749533;82;20975;-43
2022/05/25 07:04:06;;;;;;;9.60;2.40;;;;;;;21.16;41.80;100899.17;1749665;82;20909;-43
2022/05/25 07:06:36;;;;;;;2.30;2.20;;;;;;;21.20;42.10;100898.06;1749595;81;20884;-43
2022/05/25 07:09:04;;;;;;;3.40;2.00;;;;;;;21.05;41.79;100898.45;1749677;81;20988;-43
2022/05/25 07:11:31;;;;;;;4.15;2.20;;;;;;;21.06;42.14;100902.78;1749836;82;21198;-43
2022/05/25 07:14:00;;;;;;;4.08;2.12;;;;;;;21.28;41.65;100902.90;1749645;81;21471;-43
2022/05/25 07:16:27;;;;;;;9.28;2.83;;;;;;;21.39;40.38;100897.89;1749770;82;21015;-43
2022/05/25 07:18:55;;;;;;;7.87;2.10;;;;;;;21.48;39.63;100901.78;1749911;81;20936;-43
2022/05/25 07:21:26;;;;;;;3.45;2.40;;;;;;;21.56;41.08;100903.95;1749747;81;20976;-43
2022/05/25 07:23:54;;;;;;;6.25;2.10;;;;;;;21.73;40.58;100896.45;1749624;81;21242;-42
2022/05/25 07:26:24;;;;;;;6.90;2.55;;;;;;;22.04;39.83;100899.40;1749718;82;20947;-43
2022/05/25 07:28:51;;;;;;;3.52;2.10;;;;;;;22.18;38.16;100897.73;1749707;82;20948;-43
2022/05/25 07:31:30;;;;;;;4.92;2.12;;;;;;;22.12;37.94;100904.22;1749637;82;20857;-43
2022/05/25 07:34:11;;;;;;;3.22;2.05;;;;;;;22.21;37.39;100902.81;1744187;82;20937;-44
2022/05/25 07:36:38;;;;;;;8.85;2.22;;;;;;;22.35;37.81;100902.80;1749901;80;21756;-42
2022/05/25 07:39:08;;;;;;;6.20;2.08;;;;;;;22.49;36.43;100904.66;1749608;82;20983;-42
2022/05/25 07:41:36;;;;;;;8.43;2.02;;;;;;;22.67;34.69;100903.98;1750179;81;20936;-42
2022/05/25 07:44:08;;;;;;;2.90;2.05;;;;;;;22.68;34.12;100904.35;1750319;81;20897;-42
2022/05/25 07:46:36;;;;;;;3.42;1.70;;;;;;;22.38;35.70;100906.60;1750526;82;22076;-43
2022/05/25 07:49:03;;;;;;;3.58;1.90;;;;;;;22.15;35.94;100907.16;1750512;82;21402;-43
2022/05/25 07:51:30;;;;;;;5.10;1.60;;;;;;;21.73;36.10;100913.56;1750342;82;20971;-43
2022/05/25 07:53:58;;;;;;;4.22;1.65;;;;;;;21.35;36.32;100917.44;1749899;82;21458;-43
2022/05/25 07:56:30;;;;;;;5.83;2.17;;;;;;;21.00;36.40;100917.16;1750021;82;20921;-43
2022/05/25 07:59:01;;;;;;;10.13;1.70;;;;;;;20.77;37.18;100920.99;1749972;80;21407;-43
2022/05/25 08:07:04;;;;;;;3.60;1.37;;;;;;;21.62;33.28;100912.84;1750022;82;20984;-43
2022/05/25 08:09:33;;;;;;;1.15;1.05;;;;;;;21.82;32.22;100918.28;1750007;82;20961;-43
2022/05/25 08:12:01;;;;;;;2.02;1.27;;;;;;;21.88;32.38;100921.87;1750036;82;20952;-43
2022/05/25 08:14:28;;;;;;;4.33;1.25;;;;;;;21.79;32.38;100921.10;1749955;82;21263;-43
2022/05/25 08:16:55;;;;;;;7.42;1.30;;;;;;;21.44;31.77;100924.80;1749979;82;20937;-43
2022/05/25 08:19:23;;;;;;;4.42;1.60;;;;;;;21.02;33.53;100921.86;1749828;82;20984;-43
2022/05/25 08:21:55;;;;;;;1.98;1.20;;;;;;;20.70;32.61;100929.67;1750014;82;21423;-43
2022/05/25 08:24:19;;;;;;;2.15;1.30;;;;;;;20.44;33.68;100934.53;1749077;82;21455;-43
2022/05/25 08:26:48;;;;;;;1.45;1.10;;;;;;;20.30;34.10;100929.17;1749679;80;21261;-43
2022/05/25 08:29:14;;;;;;;4.08;1.05;;;;;;;20.16;33.31;100932.03;1749952;82;21503;-43
2022/05/25 08:31:44;;;;;;;2.00;1.10;;;;;;;20.03;33.48;100930.97;1750003;82;20960;-43
2022/05/25 08:34:11;;;;;;;5.55;1.50;;;;;;;20.28;32.16;100929.23;1749878;80;21091;-43
2022/05/25 08:36:38;;;;;;;4.70;1.00;;;;;;;20.74;33.39;100923.79;1750005;81;20921;-43
2022/05/25 08:39:05;;;;;;;1.35;1.00;;;;;;;21.39;31.13;100928.17;1749916;81;21230;-43
2022/05/25 08:41:35;;;;;;;3.85;0.72;;;;;;;21.88;29.28;100923.67;1742262;81;21403;-43
2022/05/25 08:44:02;;;;;;;3.85;1.00;;;;;;;22.15;28.76;100921.65;1735958;81;20965;-43
2022/05/25 08:46:31;;;;;;;3.98;1.25;;;;;;;22.54;29.00;100929.41;1736006;82;20910;-43
2022/05/25 08:49:02;;;;;;;4.30;0.90;;;;;;;22.71;26.96;100926.20;1736064;81;20972;-43
2022/05/25 08:51:30;;;;;;;1.57;0.98;;;;;;;22.50;27.01;100928.77;1735818;82;21200;-43
2022/05/25 08:53:58;;;;;;;4.03;0.90;;;;;;;22.64;28.39;100932.33;1735803;81;20953;-43
2022/05/25 08:56:46;;;;;;;5.65;1.42;;;;;;;23.08;27.55;100924.73;1735902;82;20940;-43
2022/05/25 08:59:18;;;;;;;1.17;0.70;;;;;;;23.35;26.92;100928.34;1735991;81;20957;-43
2022/05/25 09:01:57;;;;;;;4.53;0.72;;;;;;;23.48;24.42;100925.28;1735752;82;20933;-44
2022/05/25 09:04:50;;;;;;;1.87;0.90;;;;;;;23.45;24.06;100922.84;1735846;82;21231;-44
2022/05/25 09:07:39;;;;;;;4.22;0.90;;;;;;;23.61;24.82;100921.36;1735788;82;21505;-44
2022/05/25 09:10:07;;;;;;;1.22;0.88;;;;;;;23.74;23.98;100927.98;1735774;82;21416;-43
2022/05/25 09:12:43;;;;;;;1.70;1.00;;;;;;;23.64;24.28;100924.28;1735963;82;20921;-43
2022/05/25 09:15:15;;;;;;;7.10;1.07;;;;;;;23.80;24.27;100930.21;1735900;82;20858;-42
2022/05/25 09:17:49;;;;;;;0.80;0.80;;;;;;;23.73;24.58;100924.98;1735829;82;21404;-43
2022/05/25 09:20:21;;;;;;;1.77;0.88;;;;;;;23.80;25.98;100927.56;1735858;82;20929;-43
2022/05/25 09:22:48;;;;;;;1.12;1.00;;;;;;;23.95;25.38;100934.11;1736058;82;21451;-43
2022/05/25 09:25:15;;;;;;;4.10;1.00;;;;;;;23.99;24.07;100930.30;1735919;82;21007;-43
2022/05/25 09:28:03;;;;;;;3.10;0.80;;;;;;;24.10;23.69;100933.08;1735952;82;21011;-43
2022/05/25 09:30:33;;;;;;;4.80;1.02;;;;;;;24.07;25.46;100928.00;1725887;82;22096;-43
2022/05/25 09:33:07;;;;;;;2.37;0.98;;;;;;;24.29;24.12;100930.50;1735787;82;21624;-43
2022/05/25 09:35:46;;;;;;;4.03;0.90;;;;;;;24.47;23.51;100923.07;1730272;82;21016;-43
2022/05/25 09:38:45;;;;;;;2.70;0.90;;;;;;;24.74;23.21;100927.86;1735756;82;21468;-43
2022/05/25 09:41:17;;;;;;;2.95;1.10;;;;;;;25.01;23.91;100928.19;1735829;81;20964;-43
2022/05/25 09:43:43;;;;;;;3.98;1.10;;;;;;;24.90;24.94;100931.61;1714556;82;21158;-43
2022/05/25 09:46:28;;;;;;;3.80;1.10;;;;;;;24.86;24.54;100917.73;1735857;82;20984;-43
2022/05/25 09:49:02;;;;;;;3.30;1.10;;;;;;;24.86;26.14;100923.52;1735698;82;20944;-43
2022/05/25 09:51:43;;;;;;;2.55;1.17;;;;;;;25.01;25.21;100928.19;1735962;81;20968;-43
2022/05/25 09:54:46;;;;;;;2.05;1.10;;;;;;;25.08;26.05;100921.48;1735988;82;20957;-43
2022/05/25 09:57:40;;;;;;;3.37;1.30;;;;;;;25.03;24.45;100922.30;1715453;82;21370;-43
2022/05/25 10:00:21;;;;;;;2.83;0.93;;;;;;;24.82;25.94;100925.53;1735784;82;20874;-43
2022/05/25 10:03:19;;;;;;;5.35;1.37;;;;;;;24.95;25.22;100928.14;1710540;82;21376;-43
2022/05/25 10:05:56;;;;;;;2.50;0.80;;;;;;;25.03;24.60;100917.86;1735901;82;20925;-42
2022/05/25 10:08:37;;;;;;;1.67;1.20;;;;;;;24.90;24.47;100925.85;1736007;82;20933;-42
2022/05/25 10:11:28;;;;;;;4.70;1.17;;;;;;;24.84;24.58;100916.17;1735771;82;21590;-43
2022/05/25 10:14:15;;;;;;;1.37;1.00;;;;;;;24.80;25.02;100916.39;1735869;82;20981;-43
2022/05/25 10:16:42;;;;;;;3.47;1.20;;;;;;;24.81;25.13;100907.96;1707905;82;20937;-43
2022/05/25 10:19:12;;;;;;;1.37;0.90;;;;;;;24.90;25.15;100908.64;1735862;82;20888;-43
2022/05/25 10:21:40;;;;;;;3.45;1.27;;;;;;;25.06;24.35;100910.16;1735839;82;20905;-43
2022/05/25 10:24:36;;;;;;;3.98;1.35;;;;;;;24.98;24.22;100909.88;1735905;82;21202;-43
2022/05/25 10:27:04;;;;;;;5.53;1.07;;;;;;;24.71;23.76;100909.06;1736012;81;20933;-43
2022/05/25 10:38:29;;;;;;;4.92;1.22;;;;;;;25.14;24.66;100910.93;1735922;81;21018;-44
2022/05/25 10:41:37;;;;;;;2.10;1.20;;;;;;;24.82;24.95;100908.33;1735662;81;21491;-43
2022/05/25 10:43:30;;;;;;;5.20;1.35;;;;;;;24.71;24.92;100913.03;1732816;82;20937;-44
2022/05/25 10:46:00;;;;;;;6.12;1.10;;;;;;;24.65;25.88;100918.77;1735720;82;21186;-44
2022/05/25 10:48:46;;;;;;;1.12;0.98;;;;;;;24.80;26.52;100914.21;1735752;82;20921;-44
2022/05/25 10:51:18;;;;;;;13.28;1.90;;;;;;;25.02;24.02;100906.05;1732725;82;21911;-44
2022/05/25 10:57:05;;;;;;;9.25;1.10;;;;;;;25.16;25.81;100907.69;1735879;82;20953;-43
2022/05/25 11:00:05;;;;;;;2.67;1.00;;;;;;;25.31;24.85;100906.56;1735827;82;21075;-44
2022/05/25 11:02:58;;;;;;;2.77;0.90;;;;;;;25.03;25.19;100901.98;1735861;81;20969;-44
2022/05/25 11:05:52;;;;;;;4.40;1.10;;;;;;;24.88;25.83;100899.94;1735853;81;22157;-44
2022/05/25 11:08:40;;;;;;;4.05;1.15;;;;;;;24.96;24.54;100899.39;1735670;82;20929;-44
2022/05/25 11:11:33;;;;;;;3.12;1.40;;;;;;;24.86;25.08;100893.91;1735934;82;21535;-44
2022/05/25 11:27:51;;;;;;;3.83;1.10;;;;;;;25.53;24.85;100887.78;1780509;80;22734;-43
2022/05/25 11:30:32;;;;;;;6.20;1.10;;;;;;;25.80;23.82;100895.43;1790592;79;20952;-42
2022/05/25 11:33:20;;;;;;;4.92;0.98;;;;;;;25.64;25.29;100893.10;1790559;80;21272;-44
2022/05/25 11:36:31;;;;;;;2.60;1.22;;;;;;;25.48;24.20;100888.12;1790446;80;20964;-43
2022/05/25 11:39:12;;;;;;;1.30;1.05;;;;;;;25.27;24.51;100892.33;1789984;79;21488;-44
2022/05/25 11:41:53;;;;;;;4.08;1.12;;;;;;;25.53;24.39;100884.64;1790619;80;20952;-43
2022/05/25 11:44:34;;;;;;;13.72;1.62;;;;;;;25.79;24.64;100898.22;1790718;79;21464;-42
2022/05/25 11:47:40;;;;;;;12.45;1.77;;;;;;;26.00;23.71;100887.76;1790460;80;21896;-44
2022/05/25 11:50:12;;;;;;;12.53;1.90;;;;;;;26.00;24.13;100886.43;1790044;80;20982;-44
2022/05/25 11:52:55;;;;;;;15.83;1.40;;;;;;;26.08;22.89;100885.34;1790482;79;21437;-44
2022/05/25 11:55:35;;;;;;;3.35;1.52;;;;;;;26.00;24.41;100881.59;1780079;80;21014;-44
2022/05/25 11:58:26;;;;;;;1.85;1.00;;;;;;;26.16;22.47;100894.53;1790142;80;21409;-43
2022/05/25 12:01:04;;;;;;;5.15;1.20;;;;;;;26.45;22.90;100887.45;1773959;80;21346;-44
2022/05/25 12:04:01;;;;;;;2.45;1.00;;;;;;;26.63;22.95;100878.00;1790167;80;20966;-44
2022/05/25 12:07:04;;;;;;;1.77;1.10;;;;;;;26.49;22.78;100888.89;1790677;80;21505;-44
2022/05/25 12:10:10;;;;;;;3.10;1.25;;;;;;;26.56;22.50;100883.94;1790458;80;20936;-42
2022/05/25 12:12:54;;;;;;;4.87;1.10;;;;;;;26.49;22.05;100882.25;1790578;80;20881;-44
2022/05/25 12:15:26;;;;;;;4.95;1.07;;;;;;;26.66;23.74;100883.09;1794989;78;21117;-44
2022/05/25 12:18:02;;;;;;;1.95;0.90;;;;;;;26.89;23.04;100883.55;1786967;78;20841;-43
2022/05/25 12:20:43;;;;;;;3.22;1.05;;;;;;;26.50;22.49;100889.25;1819578;78;20932;-43
2022/05/25 12:23:19;;;;;;;4.97;1.20;;;;;;;26.31;22.12;100886.72;1816252;78;20967;-43
2022/05/25 12:25:54;;;;;;;1.22;1.02;;;;;;;26.11;22.59;100882.45;1820442;78;20936;-43
2022/05/25 12:28:23;;;;;;;;;;;;;;;26.04;22.54;100878.59;1822773;78;21341;-43
2022/05/25 12:30:54;;;;;;;1.57;0.93;;;;;;;25.83;22.83;100882.44;1820113;78;20125;-43
2022/05/25 12:33:24;;;;;;;1.30;1.20;;;;;;;25.86;22.48;100876.03;1820239;78;20932;-44
2022/05/25 12:35:51;;;;;;;6.22;1.32;;;;;;;26.19;23.35;100879.73;1819965;78;20853;-44
2022/05/25 12:38:19;;;;;;;5.28;1.42;;;;;;;26.47;22.95;100877.55;1820122;78;21445;-44
2022/05/25 12:40:50;;;;;;;5.30;0.93;;;;;;;26.54;22.34;100876.09;1820051;78;21096;-43